createdAt,value
2019-02-03T00:04:08.752Z,98503.27
2019-02-03T00:10:13.784Z,98517.13
2019-02-03T00:16:18.531Z,98519.30
2019-02-03T00:22:24.023Z,98519.44
2019-02-03T00:28:28.903Z,98526.17
2019-02-03T00:34:33.570Z,98534.31
2019-02-03T00:40:38.208Z,98534.97
2019-02-03T00:46:43.602Z,98544.70
2019-02-03T00:52:48.236Z,98554.30
2019-02-03T00:58:52.930Z,98571.13
2019-02-03T01:04:57.851Z,98585.66
2019-02-03T01:11:02.646Z,98600.75
2019-02-03T01:17:07.967Z,98625.02
2019-02-03T01:23:13.480Z,98642.84
2019-02-03T01:29:18.358Z,98655.77
2019-02-03T01:35:23.114Z,98662.91
2019-02-03T01:41:28.349Z,98664.02
2019-02-03T01:47:32.935Z,98676.55
2019-02-03T01:53:43.958Z,98681.00
2019-02-03T01:59:48.825Z,98683.37
2019-02-03T02:05:53.629Z,98691.31
2019-02-03T02:11:58.402Z,98704.78
2019-02-03T02:18:03.067Z,98691.41
2019-02-03T02:24:07.742Z,98691.81
2019-02-03T02:30:18.008Z,98692.78
2019-02-03T02:36:22.647Z,98688.64
2019-02-03T02:42:27.415Z,98694.81
2019-02-03T02:48:34.635Z,98696.83
2019-02-03T02:54:39.313Z,98654.56
2019-02-03T03:00:44.491Z,98645.16
2019-02-03T03:06:49.390Z,98679.57
2019-02-03T03:12:54.020Z,98712.48
2019-02-03T03:18:58.938Z,98744.83
2019-02-03T03:25:07.375Z,98753.34
2019-02-03T03:31:12.431Z,98763.84
2019-02-03T03:37:17.181Z,98762.05
2019-02-03T03:43:21.896Z,98777.34
2019-02-03T03:49:26.549Z,98777.61
2019-02-03T03:55:31.249Z,98792.80
2019-02-03T04:01:36.601Z,98801.97
2019-02-03T04:07:41.743Z,98809.53
2019-02-03T04:13:46.396Z,98819.18
2019-02-03T04:19:51.122Z,98812.14
2019-02-03T04:25:56.131Z,98821.30
2019-02-03T04:32:00.835Z,98821.97
2019-02-03T04:38:05.752Z,98817.22
2019-02-03T04:44:10.598Z,98833.19
2019-02-03T04:50:18.342Z,98845.56
2019-02-03T04:56:22.889Z,98837.91
2019-02-03T05:02:27.528Z,98836.14
2019-02-03T05:08:32.197Z,98847.61
2019-02-03T05:14:36.940Z,98845.27
2019-02-03T05:20:42.152Z,98845.16
2019-02-03T05:26:46.957Z,98830.62
2019-02-03T05:32:53.131Z,98838.55
2019-02-03T05:38:58.083Z,98852.00
2019-02-03T05:45:02.815Z,98862.97
2019-02-03T05:51:07.444Z,98890.99
2019-02-03T05:57:12.699Z,98894.33
2019-02-03T06:03:17.420Z,98903.91
2019-02-03T06:09:22.436Z,98912.88
2019-02-03T06:15:27.465Z,98918.36
2019-02-03T06:21:32.251Z,98933.01
2019-02-03T06:27:36.873Z,98943.17
2019-02-03T06:33:42.476Z,98954.36
2019-02-03T06:39:48.868Z,98966.32
2019-02-03T06:45:55.294Z,98981.07
2019-02-03T06:52:00.112Z,98990.05
2019-02-03T06:58:05.003Z,99006.23
2019-02-03T07:04:09.614Z,99019.13
2019-02-03T07:10:14.590Z,99022.16
2019-02-03T07:16:19.152Z,99028.65
2019-02-03T07:22:23.717Z,99050.61
2019-02-03T07:28:28.561Z,99054.44
2019-02-03T07:34:33.359Z,99058.39
2019-02-03T07:40:37.985Z,99077.26
2019-02-03T07:46:43.647Z,99067.73
2019-02-03T07:52:48.739Z,99075.66
2019-02-03T07:58:53.310Z,99094.14
2019-02-03T08:04:57.932Z,99094.09
2019-02-03T08:11:04.667Z,99089.60
2019-02-03T08:17:08.820Z,99104.52
2019-02-03T08:23:16.517Z,99110.03
2019-02-03T08:29:22.968Z,99093.90
2019-02-03T08:35:27.629Z,99094.99
2019-02-03T08:41:32.252Z,99099.01
2019-02-03T08:47:36.818Z,99110.80
2019-02-03T08:53:41.420Z,99119.55
2019-02-03T08:59:46.070Z,99124.16
2019-02-03T09:05:50.780Z,99138.28
2019-02-03T09:11:55.454Z,99147.68
2019-02-03T09:18:00.150Z,99167.17
2019-02-03T09:24:05.557Z,99177.84
2019-02-03T09:30:16.151Z,99198.82
2019-02-03T09:36:22.372Z,99200.86
2019-02-03T09:42:27.071Z,99225.28
2019-02-03T09:48:31.734Z,99237.33
2019-02-03T09:54:36.379Z,99250.98
2019-02-03T10:00:41.081Z,99271.47
2019-02-03T10:06:45.702Z,99269.94
2019-02-03T10:12:50.403Z,99280.56
2019-02-03T10:18:54.960Z,99284.13
2019-02-03T10:25:00.879Z,99284.59
2019-02-03T10:31:05.572Z,99285.05
2019-02-03T10:37:10.397Z,99290.67
2019-02-03T10:43:15.257Z,99288.39
2019-02-03T10:49:19.903Z,99292.33
2019-02-03T10:55:25.247Z,99291.90
2019-02-03T11:01:30.019Z,99297.73
2019-02-03T11:07:35.009Z,99303.77
2019-02-03T11:13:39.621Z,99306.08
2019-02-03T11:19:44.598Z,99295.49
2019-02-03T11:25:49.653Z,99310.44
2019-02-03T11:31:54.515Z,99308.82
2019-02-03T11:37:59.578Z,99303.78
2019-02-03T11:44:04.435Z,99310.53
2019-02-03T11:50:29.748Z,99311.20
2019-02-03T11:56:34.303Z,99326.80
2019-02-03T12:02:42.051Z,99333.09
2019-02-03T12:08:45.722Z,99333.02
2019-02-03T12:14:50.282Z,99342.07
2019-02-03T12:20:57.406Z,99350.56
2019-02-03T12:27:01.963Z,99355.55
2019-02-03T12:33:08.346Z,99357.38
2019-02-03T12:39:13.421Z,99368.37
2019-02-03T12:45:23.728Z,99381.95
2019-02-03T12:51:28.307Z,99389.58
2019-02-03T12:57:33.549Z,99406.06
2019-02-03T13:03:42.147Z,99409.84
2019-02-03T13:09:46.865Z,99422.11
2019-02-03T13:15:52.717Z,99431.78
2019-02-03T13:21:58.519Z,99439.08
2019-02-03T13:28:03.243Z,99444.86
2019-02-03T13:34:07.956Z,99448.69
2019-02-03T13:40:14.477Z,99461.81
2019-02-03T13:46:19.095Z,99464.25
2019-02-03T13:52:23.814Z,99473.63
2019-02-03T13:58:36.748Z,99472.92
2019-02-03T14:04:34.842Z,99481.66
2019-02-03T14:10:42.259Z,99501.37
2019-02-03T14:16:46.854Z,99506.31
2019-02-03T14:22:51.751Z,99514.78
2019-02-03T14:28:56.324Z,99523.66
2019-02-03T14:35:00.885Z,99528.22
2019-02-03T14:41:09.316Z,99534.56
2019-02-03T14:47:14.266Z,99530.52
2019-02-03T14:53:19.096Z,99544.84
2019-02-03T14:59:23.658Z,99547.63
2019-02-03T15:05:28.305Z,99562.27
2019-02-03T15:11:32.948Z,99558.29
2019-02-03T15:17:39.360Z,99569.07
2019-02-03T15:23:44.303Z,99558.67
2019-02-03T15:29:49.075Z,99574.11
2019-02-03T15:35:53.808Z,99579.02
2019-02-03T15:41:58.450Z,99585.75
2019-02-03T15:48:03.030Z,99599.08
2019-02-03T15:54:07.861Z,99607.09
2019-02-03T16:00:37.351Z,99607.75
2019-02-03T16:06:42.055Z,99613.33
2019-02-03T16:12:46.915Z,99625.63
2019-02-03T16:18:51.734Z,99635.09
2019-02-03T16:24:56.364Z,99647.79
2019-02-03T16:31:00.954Z,99654.99
2019-02-03T16:37:06.559Z,99669.30
2019-02-03T16:43:11.277Z,99682.80
2019-02-03T16:49:16.699Z,99683.00
2019-02-03T16:55:22.072Z,99683.28
2019-02-03T17:01:26.719Z,99703.73
2019-02-03T17:07:31.314Z,99711.05
2019-02-03T17:13:36.288Z,99720.66
2019-02-03T17:19:41.132Z,99729.66
2019-02-03T17:25:53.138Z,99736.55
2019-02-03T17:31:57.774Z,99760.95
2019-02-03T17:38:02.483Z,99756.63
2019-02-03T17:44:12.885Z,99772.81
2019-02-03T17:50:18.154Z,99789.63
2019-02-03T17:56:22.900Z,99801.39
2019-02-03T18:02:27.600Z,99813.58
2019-02-03T18:08:33.362Z,99818.69
2019-02-03T18:14:37.937Z,99824.73
2019-02-03T18:20:42.586Z,99831.21
2019-02-03T18:26:47.268Z,99837.07
2019-02-03T18:32:52.223Z,99838.22
2019-02-03T18:38:56.936Z,99846.66
2019-02-03T18:45:02.620Z,99857.36
2019-02-03T18:51:07.330Z,99864.34
2019-02-03T18:57:12.508Z,99872.72
2019-02-03T19:03:17.530Z,99889.28
2019-02-03T19:09:22.163Z,99894.67
2019-02-03T19:15:29.736Z,99913.59
2019-02-03T19:21:34.644Z,99917.54
2019-02-03T19:27:39.391Z,99922.75
2019-02-03T19:33:44.047Z,99935.48
2019-02-03T19:39:48.598Z,99946.09
2019-02-03T19:45:53.192Z,99963.70
2019-02-03T19:51:59.689Z,99957.37
2019-02-03T19:58:08.217Z,99964.72
2019-02-03T20:04:13.091Z,99976.27
2019-02-03T20:10:22.249Z,99987.94
2019-02-03T20:16:27.280Z,99997.30
2019-02-03T20:22:31.838Z,99998.84
2019-02-03T20:28:36.489Z,100007.14
2019-02-03T20:34:44.151Z,100016.37
2019-02-03T20:40:48.738Z,100021.05
2019-02-03T20:46:53.373Z,100026.91
2019-02-03T20:52:58.139Z,100039.03
2019-02-03T20:59:02.948Z,100045.62
2019-02-03T21:05:08.806Z,100064.95
2019-02-03T21:11:13.522Z,100067.13
2019-02-03T21:17:18.093Z,100076.74
2019-02-03T21:23:23.729Z,100092.25
2019-02-03T21:29:28.329Z,100100.28
2019-02-03T21:35:32.941Z,100112.41
2019-02-03T21:41:37.731Z,100127.61
2019-02-03T21:47:42.535Z,100127.12
2019-02-03T21:53:47.478Z,100141.59
2019-02-03T21:59:52.028Z,100147.13
2019-02-03T22:05:56.604Z,100147.27
2019-02-03T22:12:02.187Z,100151.09
2019-02-03T22:18:07.251Z,100162.00
2019-02-03T22:24:12.232Z,100173.89
2019-02-03T22:30:26.578Z,100180.38
2019-02-03T22:36:31.301Z,100171.63
2019-02-03T22:42:35.949Z,100183.16
2019-02-03T22:48:40.674Z,100188.08
2019-02-03T22:54:45.359Z,100190.60
2019-02-03T23:00:55.451Z,100209.22
2019-02-03T23:07:00.149Z,100203.36
2019-02-03T23:13:05.293Z,100211.19
2019-02-03T23:19:12.868Z,100214.19
2019-02-03T23:25:17.739Z,100219.00
2019-02-03T23:31:22.409Z,100229.66
2019-02-03T23:37:27.179Z,100223.44
2019-02-03T23:43:31.840Z,100227.34
2019-02-03T23:49:37.184Z,100233.00
2019-02-03T23:55:42.359Z,100235.51
